Time;durP1;ratioP1;P1;durP2;ratioP2;P2;SDS_P1;SDS_P2;PMS_P1;PMS_P2;Temp;Humidity;BMP_temperature;BMP_pressure;BME280_temperature;BME280_humidity;BME280_pressure;Samples;Min_cycle;Max_cycle;Signal;HPM_P1;HPM_P2
2022/06/02 00:01:11;;;;;;;3.83;2.03;;;;;;;;;;5039047;28;20279;-76
2022/06/02 00:03:42;;;;;;;2.20;1.93;;;;;;;;;;5053058;28;20595;-76
2022/06/02 00:06:14;;;;;;;2.47;2.07;;;;;;;;;;5056165;28;20220;-75
2022/06/02 00:08:50;;;;;;;2.70;2.27;;;;;;;;;;5054874;28;20238;-75
2022/06/02 00:11:26;;;;;;;2.27;2.07;;;;;;;;;;5054258;28;20301;-76
2022/06/02 00:13:58;;;;;;;3.20;2.07;;;;;;;;;;5053117;28;20337;-75
2022/06/02 00:16:29;;;;;;;2.30;2.10;;;;;;;;;;5038864;28;20306;-76
2022/06/02 00:18:58;;;;;;;4.33;2.20;;;;;;;;;;5066720;28;20631;-75
2022/06/02 00:21:30;;;;;;;3.03;2.13;;;;;;;;;;5052945;28;20670;-75
2022/06/02 00:23:59;;;;;;;2.77;2.10;;;;;;;;;;5068090;28;20209;-75
2022/06/02 00:26:39;;;;;;;4.00;2.00;;;;;;;;;;5049090;28;20301;-75
2022/06/02 00:29:11;;;;;;;5.63;2.20;;;;;;;;;;5059052;28;20290;-75
2022/06/02 00:31:47;;;;;;;2.30;2.10;;;;;;;;;;5044346;28;20210;-75
2022/06/02 00:34:17;;;;;;;2.83;2.07;;;;;;;;;;5053545;28;20293;-75
2022/06/02 00:36:48;;;;;;;2.10;1.93;;;;;;;;;;5060006;28;20293;-75
2022/06/02 00:39:16;;;;;;;2.77;2.30;;;;;;;;;;5067314;28;20208;-76
2022/06/02 00:41:45;;;;;;;2.20;2.00;;;;;;;;;;5040718;28;20226;-75
2022/06/02 00:44:29;;;;;;;2.43;1.83;;;;;;;;;;5033998;28;20321;-75
2022/06/02 00:47:02;;;;;;;2.17;1.80;;;;;;;;;;5049262;28;20245;-76
2022/06/02 00:49:37;;;;;;;3.30;2.30;;;;;;;;;;5038850;28;20678;-76
2022/06/02 00:52:15;;;;;;;3.43;2.33;;;;;;;;;;5040932;28;20333;-75
2022/06/02 00:57:35;;;;;;;3.30;2.17;;;;;;;;;;5052389;28;20581;-76
2022/06/02 01:00:12;;;;;;;2.20;2.00;;;;;;;;;;5056332;28;20235;-75
2022/06/02 01:02:45;;;;;;;2.77;2.10;;;;;;;;;;5055526;28;20204;-76
2022/06/02 01:05:12;;;;;;;2.50;2.10;;;;;;;;;;5046523;28;20223;-76
2022/06/02 01:07:43;;;;;;;2.93;2.00;;;;;;;;;;5052481;28;20322;-75
2022/06/02 01:10:28;;;;;;;3.20;2.10;;;;;;;;;;5072500;28;20669;-76
2022/06/02 01:13:10;;;;;;;3.57;2.27;;;;;;;;;;5070449;28;20259;-76
2022/06/02 01:15:42;;;;;;;2.57;2.30;;;;;;;;;;5035855;28;20233;-75
2022/06/02 01:18:17;;;;;;;2.13;1.90;;;;;;;;;;5051902;28;20293;-76
2022/06/02 01:20:52;;;;;;;2.60;2.10;;;;;;;;;;5057638;28;20284;-76
2022/06/02 01:23:36;;;;;;;2.77;2.50;;;;;;;;;;5052472;28;20213;-75
2022/06/02 01:26:30;;;;;;;2.57;2.30;;;;;;;;;;5051853;28;20222;-75
2022/06/02 01:28:59;;;;;;;2.90;2.53;;;;;;;;;;5052512;28;20286;-75
2022/06/02 01:31:33;;;;;;;3.30;2.20;;;;;;;;;;5050411;28;20286;-75
2022/06/02 01:34:04;;;;;;;3.13;2.50;;;;;;;;;;5047784;28;20398;-76
2022/06/02 01:36:34;;;;;;;4.27;2.67;;;;;;;;;;5052510;28;20228;-76
2022/06/02 01:39:05;;;;;;;3.70;2.57;;;;;;;;;;5052326;28;20231;-75
2022/06/02 01:41:38;;;;;;;3.33;2.50;;;;;;;;;;5052309;28;20532;-76
2022/06/02 01:44:10;;;;;;;2.30;2.10;;;;;;;;;;5067524;28;20269;-76
2022/06/02 01:46:42;;;;;;;2.63;2.07;;;;;;;;;;5066715;28;20224;-75
2022/06/02 01:49:24;;;;;;;2.60;2.40;;;;;;;;;;5040182;28;20555;-76
2022/06/02 01:51:58;;;;;;;3.53;2.07;;;;;;;;;;5030577;28;20254;-76
2022/06/02 01:54:32;;;;;;;3.43;2.50;;;;;;;;;;5031984;28;20294;-76
2022/06/02 01:57:06;;;;;;;3.63;2.20;;;;;;;;;;5040607;28;20207;-76
2022/06/02 01:59:40;;;;;;;2.60;2.30;;;;;;;;;;5037373;28;20258;-75
2022/06/02 02:02:14;;;;;;;2.90;2.17;;;;;;;;;;5038134;28;20238;-75
2022/06/02 02:05:00;;;;;;;3.27;2.40;;;;;;;;;;5037509;28;20625;-75
2022/06/02 02:07:32;;;;;;;3.07;2.30;;;;;;;;;;5051456;28;20264;-76
2022/06/02 02:10:04;;;;;;;2.77;2.30;;;;;;;;;;5051849;28;20206;-75
2022/06/02 02:12:39;;;;;;;2.57;2.13;;;;;;;;;;5051281;28;20244;-76
2022/06/02 02:15:15;;;;;;;2.40;2.20;;;;;;;;;;5038995;28;20239;-76
2022/06/02 02:17:49;;;;;;;2.57;2.10;;;;;;;;;;5050722;28;20211;-75
2022/06/02 02:20:21;;;;;;;2.70;2.00;;;;;;;;;;5051712;28;20207;-75
2022/06/02 02:22:52;;;;;;;3.80;2.20;;;;;;;;;;5064808;28;20234;-75
2022/06/02 02:25:23;;;;;;;3.57;2.10;;;;;;;;;;5068314;28;20309;-75
2022/06/02 02:28:05;;;;;;;2.90;2.00;;;;;;;;;;5031240;28;20605;-75
2022/06/02 02:30:38;;;;;;;2.57;1.93;;;;;;;;;;5031359;28;20265;-76
2022/06/02 02:33:13;;;;;;;4.37;2.50;;;;;;;;;;5031387;28;20211;-76
2022/06/02 02:35:45;;;;;;;2.83;2.30;;;;;;;;;;5049066;28;20254;-75
2022/06/02 02:38:14;;;;;;;2.90;2.00;;;;;;;;;;5071183;28;20659;-75
2022/06/02 02:40:45;;;;;;;2.93;2.20;;;;;;;;;;5051869;28;20202;-75
2022/06/02 02:43:16;;;;;;;2.37;2.00;;;;;;;;;;5051531;28;20198;-75
2022/06/02 02:45:47;;;;;;;2.43;1.93;;;;;;;;;;5036820;28;20271;-75
2022/06/02 02:48:20;;;;;;;3.00;2.10;;;;;;;;;;5042119;28;20615;-76
2022/06/02 02:50:53;;;;;;;5.57;2.10;;;;;;;;;;5051033;28;20711;-76
2022/06/02 02:53:22;;;;;;;2.83;2.00;;;;;;;;;;5050909;28;20570;-76
2022/06/02 02:55:55;;;;;;;2.20;2.00;;;;;;;;;;5046026;28;20202;-76
2022/06/02 02:58:35;;;;;;;3.13;2.10;;;;;;;;;;5045742;28;20235;-76
2022/06/02 03:01:05;;;;;;;3.03;1.90;;;;;;;;;;5038004;28;20202;-76
2022/06/02 03:03:39;;;;;;;2.60;2.20;;;;;;;;;;5031056;28;20246;-76
2022/06/02 03:06:14;;;;;;;2.97;2.20;;;;;;;;;;5052904;28;20276;-74
2022/06/02 03:08:45;;;;;;;2.80;1.87;;;;;;;;;;5058968;28;20238;-76
2022/06/02 03:11:19;;;;;;;3.03;2.00;;;;;;;;;;5051333;28;20250;-76
2022/06/02 03:13:51;;;;;;;3.73;1.80;;;;;;;;;;5051362;28;20293;-76
2022/06/02 03:16:19;;;;;;;1.87;1.70;;;;;;;;;;5031184;28;20751;-76
2022/06/02 03:18:53;;;;;;;1.70;1.60;;;;;;;;;;5056232;28;20697;-75
2022/06/02 03:21:25;;;;;;;2.43;1.73;;;;;;;;;;5056937;28;20198;-76
2022/06/02 03:24:01;;;;;;;3.53;1.60;;;;;;;;;;5032368;28;20609;-76
2022/06/02 03:26:32;;;;;;;1.73;1.63;;;;;;;;;;5031180;28;20286;-76
2022/06/02 03:29:02;;;;;;;3.03;1.77;;;;;;;;;;5030763;28;20203;-76
2022/06/02 03:31:35;;;;;;;2.33;1.50;;;;;;;;;;5030844;28;20287;-76
2022/06/02 03:34:06;;;;;;;1.97;1.50;;;;;;;;;;5033014;28;20605;-76
2022/06/02 03:36:40;;;;;;;2.60;1.60;;;;;;;;;;5031081;28;20199;-76
2022/06/02 03:39:08;;;;;;;2.10;1.80;;;;;;;;;;5033153;28;20669;-76
2022/06/02 03:41:46;;;;;;;2.17;1.50;;;;;;;;;;5035588;28;20283;-76
2022/06/02 03:44:18;;;;;;;2.70;1.50;;;;;;;;;;5064436;28;20232;-76
2022/06/02 03:47:00;;;;;;;2.40;1.70;;;;;;;;;;5030682;28;20228;-76
2022/06/02 03:49:45;;;;;;;1.93;1.50;;;;;;;;;;5034225;28;20651;-76
2022/06/02 03:52:22;;;;;;;2.13;1.50;;;;;;;;;;5043705;28;20241;-76
2022/06/02 03:54:53;;;;;;;2.03;1.60;;;;;;;;;;5034326;28;20707;-76
2022/06/02 03:57:26;;;;;;;2.80;1.77;;;;;;;;;;5033850;28;20710;-76
2022/06/02 04:00:00;;;;;;;2.57;1.90;;;;;;;;;;5036239;28;20567;-76
2022/06/02 04:02:30;;;;;;;5.53;1.90;;;;;;;;;;5054133;28;20293;-76
2022/06/02 04:05:03;;;;;;;2.27;1.80;;;;;;;;;;5054237;28;20286;-77
2022/06/02 04:07:37;;;;;;;2.07;1.73;;;;;;;;;;5042247;28;20298;-76
2022/06/02 04:10:10;;;;;;;1.90;1.60;;;;;;;;;;5054004;28;20737;-74
2022/06/02 04:15:41;;;;;;;2.17;1.60;;;;;;;;;;5040337;28;20293;-76
2022/06/02 04:18:15;;;;;;;3.53;2.00;;;;;;;;;;5054967;28;20286;-76
2022/06/02 04:20:49;;;;;;;3.70;2.00;;;;;;;;;;5034083;28;20206;-76
2022/06/02 04:23:23;;;;;;;2.33;1.70;;;;;;;;;;5047590;28;20221;-76
2022/06/02 04:25:53;;;;;;;2.40;1.77;;;;;;;;;;5051979;28;20686;-76
2022/06/02 04:28:25;;;;;;;3.33;1.90;;;;;;;;;;5053451;28;20210;-75
2022/06/02 04:30:57;;;;;;;2.63;1.80;;;;;;;;;;5053435;28;20208;-76
2022/06/02 04:33:26;;;;;;;2.60;1.90;;;;;;;;;;5053084;28;20718;-76
2022/06/02 04:36:03;;;;;;;3.53;1.70;;;;;;;;;;5042645;28;20286;-76
2022/06/02 04:38:35;;;;;;;2.33;1.70;;;;;;;;;;5033992;28;20221;-76
2022/06/02 04:41:09;;;;;;;2.63;1.70;;;;;;;;;;5053502;28;20298;-73
2022/06/02 04:43:41;;;;;;;2.03;1.80;;;;;;;;;;5052781;28;20227;-76
2022/06/02 04:46:16;;;;;;;3.03;1.90;;;;;;;;;;5032988;28;20306;-76
2022/06/02 04:48:47;;;;;;;1.80;1.57;;;;;;;;;;5032745;28;20227;-76
2022/06/02 04:51:18;;;;;;;2.10;1.60;;;;;;;;;;5047675;28;20207;-75
2022/06/02 04:53:51;;;;;;;3.17;1.80;;;;;;;;;;5048859;28;20286;-76
2022/06/02 04:56:22;;;;;;;3.47;1.70;;;;;;;;;;5033430;28;20283;-75
2022/06/02 04:58:52;;;;;;;2.03;1.70;;;;;;;;;;5032181;28;20311;-75
2022/06/02 05:01:28;;;;;;;2.70;1.60;;;;;;;;;;5037790;28;20199;-75
2022/06/02 05:03:57;;;;;;;3.53;1.70;;;;;;;;;;5053147;28;20234;-75
2022/06/02 05:06:27;;;;;;;2.57;1.63;;;;;;;;;;5064231;28;20329;-76
2022/06/02 05:08:59;;;;;;;2.57;1.50;;;;;;;;;;5052278;28;20204;-76
2022/06/02 05:11:42;;;;;;;1.67;1.40;;;;;;;;;;5047324;28;20226;-76
2022/06/02 05:14:22;;;;;;;2.33;1.40;;;;;;;;;;5038617;28;20336;-75
2022/06/02 05:16:55;;;;;;;2.07;1.50;;;;;;;;;;5032510;28;20266;-76
2022/06/02 05:19:34;;;;;;;3.10;1.50;;;;;;;;;;5032384;28;20197;-76
2022/06/02 05:22:19;;;;;;;1.83;1.50;;;;;;;;;;5045934;28;20211;-76
2022/06/02 05:25:05;;;;;;;1.83;1.60;;;;;;;;;;5040895;28;20282;-77
2022/06/02 05:27:48;;;;;;;2.23;1.47;;;;;;;;;;5041759;28;20299;-76
2022/06/02 05:30:25;;;;;;;3.00;1.30;;;;;;;;;;5024069;28;20248;-77
2022/06/02 05:32:59;;;;;;;2.70;1.70;;;;;;;;;;5049479;28;20660;-76
2022/06/02 05:35:37;;;;;;;1.50;1.40;;;;;;;;;;5036018;28;20291;-76
2022/06/02 05:38:13;;;;;;;2.33;1.70;;;;;;;;;;5040310;28;20203;-76
2022/06/02 05:40:45;;;;;;;2.23;1.47;;;;;;;;;;5043134;28;20212;-76
2022/06/02 05:43:20;;;;;;;2.17;1.57;;;;;;;;;;5042470;28;20243;-75
2022/06/02 05:45:58;;;;;;;2.87;1.40;;;;;;;;;;5044304;28;20330;-75
2022/06/02 05:48:33;;;;;;;2.30;1.50;;;;;;;;;;5048047;28;20209;-76
2022/06/02 05:51:02;;;;;;;1.83;1.37;;;;;;;;;;5042185;28;20286;-76
2022/06/02 05:53:36;;;;;;;2.07;1.50;;;;;;;;;;5047320;28;20290;-76
2022/06/02 05:56:08;;;;;;;3.23;1.47;;;;;;;;;;5043329;28;20301;-76
2022/06/02 05:58:45;;;;;;;3.47;1.57;;;;;;;;;;5050772;28;20290;-76
2022/06/02 06:01:17;;;;;;;2.13;1.43;;;;;;;;;;5047424;28;20199;-77
2022/06/02 06:03:52;;;;;;;1.80;1.40;;;;;;;;;;5038303;28;20225;-76
2022/06/02 06:06:26;;;;;;;1.73;1.30;;;;;;;;;;5039695;28;20304;-76
2022/06/02 06:09:09;;;;;;;1.87;1.40;;;;;;;;;;5042252;28;20294;-76
2022/06/02 06:11:49;;;;;;;1.87;1.53;;;;;;;;;;5045722;28;20656;-75
2022/06/02 06:14:19;;;;;;;1.70;1.30;;;;;;;;;;5072010;28;20231;-76
2022/06/02 06:16:50;;;;;;;1.50;1.20;;;;;;;;;;5055181;28;20207;-75
2022/06/02 06:19:31;;;;;;;3.10;1.37;;;;;;;;;;5051522;28;20246;-75
2022/06/02 06:22:03;;;;;;;2.47;1.40;;;;;;;;;;5051801;28;20207;-75
2022/06/02 06:24:50;;;;;;;2.40;1.40;;;;;;;;;;5069520;28;20569;-76
2022/06/02 06:27:22;;;;;;;4.13;1.40;;;;;;;;;;5071545;28;20223;-75
2022/06/02 06:29:55;;;;;;;2.23;1.40;;;;;;;;;;5047384;28;20231;-76
2022/06/02 06:32:28;;;;;;;2.17;1.30;;;;;;;;;;5049165;28;20655;-75
2022/06/02 06:35:00;;;;;;;3.33;1.50;;;;;;;;;;5051624;28;20283;-76
2022/06/02 06:37:48;;;;;;;2.07;1.20;;;;;;;;;;5053062;28;20651;-77
2022/06/02 06:40:24;;;;;;;1.57;1.27;;;;;;;;;;5045351;28;20299;-75
2022/06/02 06:45:49;;;;;;;4.30;1.50;;;;;;;;;;5103930;27;20554;-76
2022/06/02 06:48:21;;;;;;;3.33;1.30;;;;;;;;;;5088546;28;20213;-75
2022/06/02 06:50:52;;;;;;;2.50;1.43;;;;;;;;;;5080189;28;20245;-76
2022/06/02 06:53:25;;;;;;;2.40;1.47;;;;;;;;;;5068791;28;20198;-75
2022/06/02 06:55:57;;;;;;;2.93;1.40;;;;;;;;;;5086203;28;20287;-76
2022/06/02 06:58:28;;;;;;;2.17;1.40;;;;;;;;;;5089111;28;20234;-76
2022/06/02 07:01:00;;;;;;;4.57;1.77;;;;;;;;;;5087570;28;20273;-76
2022/06/02 07:03:29;;;;;;;3.00;1.63;;;;;;;;;;5087348;28;20658;-76
2022/06/02 07:05:59;;;;;;;2.60;1.40;;;;;;;;;;5078724;28;20231;-76
2022/06/02 07:08:31;;;;;;;1.93;1.30;;;;;;;;;;5088931;28;20281;-76
2022/06/02 07:11:01;;;;;;;2.20;1.53;;;;;;;;;;5088584;28;20291;-76
2022/06/02 07:13:31;;;;;;;2.17;1.80;;;;;;;;;;5088680;28;20285;-76
2022/06/02 07:16:03;;;;;;;2.00;1.60;;;;;;;;;;5088263;28;20315;-77
2022/06/02 07:18:39;;;;;;;5.20;3.40;;;;;;;;;;5070958;28;20199;-76
2022/06/02 07:21:12;;;;;;;5.90;3.93;;;;;;;;;;5068562;28;20205;-76
2022/06/02 07:23:46;;;;;;;4.20;1.87;;;;;;;;;;5067824;28;20227;-77
2022/06/02 07:26:17;;;;;;;1.90;1.50;;;;;;;;;;5068351;28;20621;-77
2022/06/02 07:28:52;;;;;;;2.37;1.37;;;;;;;;;;5080624;28;20285;-77
2022/06/02 07:31:29;;;;;;;2.43;1.60;;;;;;;;;;5087966;28;20272;-76
2022/06/02 07:34:01;;;;;;;3.10;1.30;;;;;;;;;;5069870;28;20218;-77
2022/06/02 07:36:35;;;;;;;3.17;1.50;;;;;;;;;;5087519;28;20226;-76
2022/06/02 07:39:16;;;;;;;2.57;1.50;;;;;;;;;;5071010;28;20262;-77
2022/06/02 07:41:50;;;;;;;2.90;1.40;;;;;;;;;;5088172;28;20741;-77
2022/06/02 07:44:30;;;;;;;2.07;1.40;;;;;;;;;;5087760;28;20265;-77
2022/06/02 07:47:07;;;;;;;2.37;1.27;;;;;;;;;;5083807;28;20807;-76
2022/06/02 07:49:42;;;;;;;2.07;1.47;;;;;;;;;;5081470;28;20285;-76
2022/06/02 07:52:17;;;;;;;2.23;1.37;;;;;;;;;;5081314;28;20371;-76
2022/06/02 07:54:48;;;;;;;1.97;1.37;;;;;;;;;;5087203;28;20198;-76
2022/06/02 07:57:19;;;;;;;2.50;1.40;;;;;;;;;;5073544;28;20227;-76
2022/06/02 07:59:57;;;;;;;2.73;1.33;;;;;;;;;;5059388;28;20284;-76
2022/06/02 08:02:32;;;;;;;1.83;1.43;;;;;;;;;;5054668;28;20243;-77
2022/06/02 08:05:08;;;;;;;3.00;1.60;;;;;;;;;;5054359;28;20255;-77
2022/06/02 08:07:37;;;;;;;3.58;1.70;;;;;;;;;;5061618;28;20203;-77
2022/06/02 08:10:10;;;;;;;3.07;1.40;;;;;;;;;;5061596;28;20246;-77
2022/06/02 08:12:43;;;;;;;3.03;1.40;;;;;;;;;;5062134;28;20227;-77
2022/06/02 08:15:17;;;;;;;2.60;1.23;;;;;;;;;;5053887;28;20275;-77
2022/06/02 08:17:49;;;;;;;2.00;1.20;;;;;;;;;;5061496;28;20239;-77
2022/06/02 08:20:26;;;;;;;2.10;1.30;;;;;;;;;;5062566;28;20226;-77
2022/06/02 08:23:00;;;;;;;4.22;1.50;;;;;;;;;;5057344;28;20249;-77
2022/06/02 08:25:30;;;;;;;1.90;1.40;;;;;;;;;;5053302;28;20266;-77
2022/06/02 08:28:16;;;;;;;1.52;1.30;;;;;;;;;;5054023;28;20227;-77
2022/06/02 08:30:46;;;;;;;1.83;1.25;;;;;;;;;;5053426;28;20721;-77
2022/06/02 08:33:33;;;;;;;1.83;1.20;;;;;;;;;;5053470;28;20231;-77
2022/06/02 08:36:04;;;;;;;5.22;1.50;;;;;;;;;;5053115;28;20227;-77
2022/06/02 08:38:46;;;;;;;2.05;1.40;;;;;;;;;;5058339;28;20202;-77
2022/06/02 08:41:38;;;;;;;2.72;1.60;;;;;;;;;;5053500;28;20199;-77
2022/06/02 08:44:26;;;;;;;2.63;1.40;;;;;;;;;;5056135;28;20701;-77
2022/06/02 08:47:12;;;;;;;1.70;1.40;;;;;;;;;;5060336;28;20226;-75
2022/06/02 08:49:55;;;;;;;3.30;1.38;;;;;;;;;;5063134;28;20207;-76
2022/06/02 08:52:40;;;;;;;1.50;1.25;;;;;;;;;;5069502;28;20256;-76
2022/06/02 08:55:38;;;;;;;2.75;1.30;;;;;;;;;;5060547;28;20276;-76
2022/06/02 08:58:24;;;;;;;3.70;1.40;;;;;;;;;;5070923;28;20206;-76
2022/06/02 09:01:00;;;;;;;3.40;1.30;;;;;;;;;;5059177;28;20363;-76
2022/06/02 09:03:42;;;;;;;1.40;1.27;;;;;;;;;;5057015;28;20294;-77
2022/06/02 09:06:34;;;;;;;3.67;1.52;;;;;;;;;;5051103;28;20318;-76
2022/06/02 09:09:12;;;;;;;1.60;1.20;;;;;;;;;;5056024;28;20196;-76
2022/06/02 09:11:44;;;;;;;2.65;1.60;;;;;;;;;;5062339;28;20203;-76
2022/06/02 09:14:35;;;;;;;2.42;1.30;;;;;;;;;;5059830;28;20290;-77
2022/06/02 09:17:08;;;;;;;2.42;1.30;;;;;;;;;;5055526;28;20192;-77
2022/06/02 09:19:39;;;;;;;3.33;1.10;;;;;;;;;;5052612;28;20286;-76
2022/06/02 09:22:19;;;;;;;1.73;1.25;;;;;;;;;;5064724;28;20195;-76
2022/06/02 09:24:51;;;;;;;1.95;1.13;;;;;;;;;;5062635;28;20215;-76
2022/06/02 09:27:37;;;;;;;2.13;1.40;;;;;;;;;;5065924;28;20281;-77
2022/06/02 09:30:08;;;;;;;1.60;1.20;;;;;;;;;;5071310;28;20234;-76
2022/06/02 09:32:46;;;;;;;2.20;1.30;;;;;;;;;;5054825;28;20611;-76
2022/06/02 09:35:16;;;;;;;1.83;1.17;;;;;;;;;;5070510;28;20195;-77
2022/06/02 09:37:58;;;;;;;2.65;1.50;;;;;;;;;;5068514;28;20272;-76
2022/06/02 09:40:40;;;;;;;4.20;1.45;;;;;;;;;;5069287;28;20231;-76
2022/06/02 09:43:18;;;;;;;3.30;1.27;;;;;;;;;;5060846;28;20257;-77
2022/06/02 09:45:52;;;;;;;4.22;1.40;;;;;;;;;;5071124;28;20678;-77
2022/06/02 09:48:32;;;;;;;3.05;1.25;;;;;;;;;;5058566;28;20198;-77
2022/06/02 09:51:08;;;;;;;3.40;1.20;;;;;;;;;;5059904;28;20282;-77
2022/06/02 09:53:40;;;;;;;3.80;1.13;;;;;;;;;;5061160;28;20261;-77
2022/06/02 09:56:14;;;;;;;3.08;1.17;;;;;;;;;;5060237;28;20196;-77
2022/06/02 09:59:03;;;;;;;4.80;1.33;;;;;;;;;;5062023;28;20294;-77
2022/06/02 10:01:40;;;;;;;2.63;1.35;;;;;;;;;;5063131;28;20284;-77
2022/06/02 10:04:25;;;;;;;3.38;1.40;;;;;;;;;;5059511;28;20250;-77
2022/06/02 10:06:59;;;;;;;1.55;1.40;;;;;;;;;;5052287;28;20251;-77
2022/06/02 10:09:32;;;;;;;2.95;1.27;;;;;;;;;;5065437;28;20259;-77
2022/06/02 10:17:47;;;;;;;2.35;1.20;;;;;;;;;;5149249;27;20576;-78
2022/06/02 10:20:31;;;;;;;2.20;1.63;;;;;;;;;;5135297;27;20232;-77
2022/06/02 10:23:00;;;;;;;3.80;1.40;;;;;;;;;;5131778;27;20261;-77
2022/06/02 10:25:34;;;;;;;2.55;1.50;;;;;;;;;;5139275;27;20328;-77
2022/06/02 10:28:20;;;;;;;3.58;1.38;;;;;;;;;;5141172;27;20196;-77
2022/06/02 10:31:00;;;;;;;4.57;1.45;;;;;;;;;;5130107;27;20232;-77
2022/06/02 10:33:44;;;;;;;1.95;1.25;;;;;;;;;;5138365;27;20338;-77
2022/06/02 10:36:40;;;;;;;4.18;1.40;;;;;;;;;;5132883;27;20266;-77
2022/06/02 10:39:24;;;;;;;1.60;1.20;;;;;;;;;;5135622;27;20197;-78
2022/06/02 10:41:58;;;;;;;2.83;1.27;;;;;;;;;;5129358;27;20545;-77
2022/06/02 10:44:38;;;;;;;2.65;1.40;;;;;;;;;;5142839;27;20215;-77
2022/06/02 10:47:20;;;;;;;3.25;1.50;;;;;;;;;;5115435;27;20265;-78
2022/06/02 10:49:58;;;;;;;2.50;1.10;;;;;;;;;;5134030;27;20224;-78
2022/06/02 10:52:40;;;;;;;3.22;1.38;;;;;;;;;;5124945;27;20204;-79
2022/06/02 10:55:32;;;;;;;1.65;1.25;;;;;;;;;;5128948;27;20276;-79
2022/06/02 10:58:26;;;;;;;2.65;1.42;;;;;;;;;;5132191;27;20634;-79
2022/06/02 11:01:03;;;;;;;2.30;1.30;;;;;;;;;;5135118;27;20200;-78
2022/06/02 11:03:55;;;;;;;2.08;1.15;;;;;;;;;;5127040;27;20280;-79
2022/06/02 11:06:37;;;;;;;2.42;1.20;;;;;;;;;;5111463;27;20343;-78
2022/06/02 11:09:34;;;;;;;1.45;1.20;;;;;;;;;;5129106;27;20265;-78
2022/06/02 11:12:22;;;;;;;1.90;1.40;;;;;;;;;;5128660;27;20220;-78
2022/06/02 11:15:10;;;;;;;2.03;1.48;;;;;;;;;;5117236;27;20223;-78
2022/06/02 11:17:53;;;;;;;2.65;1.40;;;;;;;;;;5131804;27;20643;-78
2022/06/02 11:20:35;;;;;;;2.08;1.30;;;;;;;;;;5149755;27;20238;-79
2022/06/02 11:23:20;;;;;;;3.20;1.40;;;;;;;;;;5149821;27;20239;-79
2022/06/02 11:25:57;;;;;;;2.80;1.30;;;;;;;;;;5149303;27;20677;-78
2022/06/02 11:28:46;;;;;;;1.70;1.30;;;;;;;;;;5139101;27;20284;-78
2022/06/02 11:31:24;;;;;;;3.42;1.20;;;;;;;;;;5135968;27;20224;-78
2022/06/02 11:34:03;;;;;;;1.90;1.10;;;;;;;;;;5135879;27;20200;-78
2022/06/02 11:36:39;;;;;;;3.85;1.15;;;;;;;;;;5106570;27;20313;-78
2022/06/02 11:39:25;;;;;;;1.65;0.98;;;;;;;;;;5094591;28;20230;-78
2022/06/02 11:42:00;;;;;;;1.85;1.20;;;;;;;;;;5103617;28;20208;-79
2022/06/02 11:44:34;;;;;;;1.52;1.10;;;;;;;;;;5113996;28;20695;-79
2022/06/02 11:47:19;;;;;;;1.65;1.08;;;;;;;;;;5114954;28;20639;-78
2022/06/02 11:50:13;;;;;;;1.33;1.13;;;;;;;;;;5115112;27;20197;-79
2022/06/02 11:52:51;;;;;;;2.67;1.13;;;;;;;;;;5115036;28;20242;-79
2022/06/02 11:55:23;;;;;;;3.08;1.10;;;;;;;;;;5114577;28;20240;-78
2022/06/02 11:58:08;;;;;;;1.50;1.20;;;;;;;;;;5114281;28;20271;-78
2022/06/02 12:00:53;;;;;;;1.10;1.00;;;;;;;;;;5114443;27;20235;-78
2022/06/02 12:03:47;;;;;;;3.90;1.10;;;;;;;;;;5114757;28;20229;-78
2022/06/02 12:06:31;;;;;;;2.10;1.15;;;;;;;;;;5051074;28;20282;-78
2022/06/02 12:09:07;;;;;;;3.65;1.40;;;;;;;;;;5051458;28;20618;-78
2022/06/02 12:11:46;;;;;;;2.88;1.35;;;;;;;;;;5051395;28;20200;-78
2022/06/02 12:14:23;;;;;;;3.03;1.30;;;;;;;;;;5065029;28;20226;-78
2022/06/02 12:17:01;;;;;;;6.05;1.20;;;;;;;;;;5069190;28;20299;-78
2022/06/02 12:19:52;;;;;;;1.70;1.27;;;;;;;;;;5050782;28;20200;-78
2022/06/02 12:22:31;;;;;;;2.88;1.20;;;;;;;;;;5051117;28;20235;-78
2022/06/02 12:25:05;;;;;;;1.77;1.15;;;;;;;;;;5051519;28;20282;-78
2022/06/02 12:27:44;;;;;;;2.25;1.15;;;;;;;;;;5050992;28;20222;-78
2022/06/02 12:30:20;;;;;;;1.50;1.10;;;;;;;;;;5045220;28;20279;-78
2022/06/02 12:33:05;;;;;;;3.58;1.45;;;;;;;;;;5031340;28;20326;-79
2022/06/02 12:35:36;;;;;;;3.00;1.25;;;;;;;;;;5039081;28;20231;-78
2022/06/02 12:38:21;;;;;;;2.15;1.60;;;;;;;;;;5050844;28;20776;-79
2022/06/02 12:41:04;;;;;;;2.10;1.20;;;;;;;;;;5049581;28;20250;-78
2022/06/02 12:43:48;;;;;;;3.20;1.60;;;;;;;;;;5113152;28;20206;-78
2022/06/02 12:46:39;;;;;;;3.97;1.42;;;;;;;;;;5119834;27;20229;-78
2022/06/02 12:49:30;;;;;;;1.52;1.27;;;;;;;;;;5134428;27;20258;-78
2022/06/02 12:52:03;;;;;;;2.00;1.38;;;;;;;;;;5134522;27;20224;-78
2022/06/02 12:54:49;;;;;;;1.58;1.00;;;;;;;;;;5134266;27;20518;-78
2022/06/02 12:57:38;;;;;;;5.70;1.50;;;;;;;;;;5133770;27;20730;-78
2022/06/02 13:00:20;;;;;;;3.25;1.45;;;;;;;;;;5134544;27;20716;-78
2022/06/02 13:03:09;;;;;;;3.65;1.35;;;;;;;;;;5133714;27;20718;-78
2022/06/02 13:05:55;;;;;;;2.38;1.30;;;;;;;;;;5133325;27;20625;-78
2022/06/02 13:08:37;;;;;;;2.25;1.25;;;;;;;;;;5093082;28;20233;-78
2022/06/02 13:11:22;;;;;;;2.92;1.38;;;;;;;;;;5108380;27;20235;-78
2022/06/02 13:13:59;;;;;;;1.75;1.30;;;;;;;;;;5133711;27;20288;-78
2022/06/02 13:16:39;;;;;;;2.47;1.20;;;;;;;;;;5132994;27;20300;-78
2022/06/02 13:19:21;;;;;;;3.45;1.35;;;;;;;;;;5103081;28;20225;-78
2022/06/02 13:22:07;;;;;;;3.83;1.50;;;;;;;;;;5113026;28;20285;-78
2022/06/02 13:24:54;;;;;;;2.83;1.35;;;;;;;;;;5112597;28;20339;-78
2022/06/02 13:27:42;;;;;;;1.95;1.50;;;;;;;;;;5112938;28;20232;-78
2022/06/02 13:30:24;;;;;;;2.90;1.25;;;;;;;;;;5107747;28;20232;-78
2022/06/02 13:33:12;;;;;;;4.05;1.50;;;;;;;;;;5112911;27;20617;-78
2022/06/02 13:36:02;;;;;;;1.90;1.30;;;;;;;;;;5110045;27;20228;-78
2022/06/02 13:38:49;;;;;;;4.22;1.60;;;;;;;;;;5111508;28;20264;-78
2022/06/02 13:41:23;;;;;;;1.40;1.30;;;;;;;;;;5112824;28;20237;-78
2022/06/02 13:43:51;;;;;;;1.95;1.55;;;;;;;;;;5111906;28;20736;-78
2022/06/02 13:46:33;;;;;;;2.95;1.55;;;;;;;;;;5112511;28;20661;-78
2022/06/02 13:49:34;;;;;;;6.32;1.52;;;;;;;;;;5117768;27;20197;-78
2022/06/02 13:52:12;;;;;;;3.22;1.50;;;;;;;;;;5132355;27;20247;-78
2022/06/02 13:57:46;;;;;;;1.98;1.30;;;;;;;;;;5132579;27;20226;-78
2022/06/02 14:00:29;;;;;;;4.88;1.40;;;;;;;;;;5133477;27;20224;-78
2022/06/02 14:03:15;;;;;;;3.28;1.95;;;;;;;;;;5133214;27;20201;-78
2022/06/02 14:05:47;;;;;;;2.03;1.15;;;;;;;;;;5102812;27;20289;-78
2022/06/02 14:08:29;;;;;;;2.42;1.65;;;;;;;;;;5098347;28;20190;-78
2022/06/02 14:11:09;;;;;;;2.25;1.30;;;;;;;;;;5112267;28;20292;-78
2022/06/02 14:13:54;;;;;;;2.33;1.40;;;;;;;;;;5112275;28;20197;-78
2022/06/02 14:16:27;;;;;;;2.35;1.20;;;;;;;;;;5112098;28;20324;-78
2022/06/02 14:19:12;;;;;;;2.05;1.38;;;;;;;;;;5114223;28;20296;-78
2022/06/02 14:21:46;;;;;;;2.97;1.50;;;;;;;;;;5118964;27;20198;-78
2022/06/02 14:24:17;;;;;;;4.15;1.42;;;;;;;;;;5112011;28;20189;-78
2022/06/02 14:26:53;;;;;;;1.85;1.30;;;;;;;;;;5112122;28;20221;-78
2022/06/02 14:29:30;;;;;;;2.63;1.30;;;;;;;;;;5112102;28;20284;-78
2022/06/02 14:32:01;;;;;;;1.60;1.27;;;;;;;;;;5112150;28;20771;-78
2022/06/02 14:34:33;;;;;;;1.45;1.35;;;;;;;;;;5111949;28;20280;-78
2022/06/02 14:37:03;;;;;;;4.28;1.52;;;;;;;;;;5111581;28;20253;-78
2022/06/02 14:39:38;;;;;;;2.72;1.77;;;;;;;;;;5112252;28;20198;-78
2022/06/02 14:42:21;;;;;;;2.78;1.35;;;;;;;;;;5111831;28;20634;-78
2022/06/02 14:44:51;;;;;;;2.25;1.45;;;;;;;;;;5112284;28;20635;-78
2022/06/02 14:47:25;;;;;;;2.78;1.58;;;;;;;;;;5105939;28;20264;-78
2022/06/02 14:50:03;;;;;;;4.28;1.50;;;;;;;;;;5091681;28;20286;-78
2022/06/02 14:52:51;;;;;;;1.77;1.40;;;;;;;;;;5100619;28;20254;-78
2022/06/02 14:55:23;;;;;;;1.38;1.27;;;;;;;;;;5107011;28;20292;-78
2022/06/02 14:57:57;;;;;;;2.67;1.20;;;;;;;;;;5128079;28;20349;-78
2022/06/02 15:00:27;;;;;;;2.05;1.30;;;;;;;;;;5132407;27;20234;-78
2022/06/02 15:03:11;;;;;;;2.15;1.40;;;;;;;;;;5115299;27;20216;-78
2022/06/02 15:05:59;;;;;;;1.85;1.48;;;;;;;;;;5115949;28;20310;-78
2022/06/02 15:08:45;;;;;;;3.88;1.45;;;;;;;;;;5111088;28;20216;-78
2022/06/02 15:11:21;;;;;;;1.42;1.33;;;;;;;;;;5115310;28;20251;-78
2022/06/02 15:13:55;;;;;;;2.25;1.52;;;;;;;;;;5115904;28;20292;-78
2022/06/02 15:16:37;;;;;;;3.38;1.40;;;;;;;;;;5115107;28;20256;-78
2022/06/02 15:19:21;;;;;;;2.20;1.25;;;;;;;;;;5099247;27;20282;-78
2022/06/02 15:21:57;;;;;;;1.85;1.60;;;;;;;;;;5099055;28;20238;-78
2022/06/02 15:24:30;;;;;;;3.17;1.50;;;;;;;;;;5116102;27;20224;-79
2022/06/02 15:27:15;;;;;;;2.25;1.23;;;;;;;;;;5114640;27;20205;-78
2022/06/02 15:30:07;;;;;;;1.50;1.40;;;;;;;;;;5090850;27;20281;-78
2022/06/02 15:32:54;;;;;;;2.80;1.40;;;;;;;;;;5089964;27;20229;-78
2022/06/02 15:35:29;;;;;;;2.35;1.30;;;;;;;;;;5114674;28;20262;-78
2022/06/02 15:38:15;;;;;;;3.42;1.45;;;;;;;;;;5107476;27;20412;-78
2022/06/02 15:41:00;;;;;;;1.50;1.40;;;;;;;;;;5097713;27;20240;-78
2022/06/02 15:43:48;;;;;;;3.53;1.50;;;;;;;;;;5116339;27;20198;-78
2022/06/02 15:46:29;;;;;;;3.03;1.38;;;;;;;;;;5107181;27;20717;-78
2022/06/02 15:49:17;;;;;;;2.15;1.40;;;;;;;;;;5108467;27;20194;-78
2022/06/02 15:51:55;;;;;;;3.05;1.65;;;;;;;;;;5116067;27;20266;-79
2022/06/02 15:54:41;;;;;;;1.63;1.20;;;;;;;;;;5123987;27;20231;-78
2022/06/02 15:57:26;;;;;;;1.35;1.25;;;;;;;;;;5105198;27;20297;-78
2022/06/02 16:00:11;;;;;;;4.15;1.88;;;;;;;;;;5108852;28;20229;-78